createdAt,value
2018-09-23T00:00:13.390Z,25.1
2018-09-23T00:01:02.664Z,25.1
2018-09-23T00:01:53.877Z,25.1
2018-09-23T00:02:43.622Z,25.1
2018-09-23T00:03:33.701Z,25.1
2018-09-23T00:04:23.751Z,25.1
2018-09-23T00:05:14.391Z,25.1
2018-09-23T00:06:03.893Z,25.1
2018-09-23T00:06:53.986Z,25.1
2018-09-23T00:07:44.318Z,25.1
2018-09-23T00:08:34.354Z,25.1
2018-09-23T00:09:24.150Z,25.1
2018-09-23T00:10:14.181Z,25.1
2018-09-23T00:11:03.984Z,25.1
2018-09-23T00:11:54.623Z,25.1
2018-09-23T00:12:44.668Z,25.1
2018-09-23T00:13:34.423Z,25.1
2018-09-23T00:14:24.795Z,25.1
2018-09-23T00:15:15.210Z,25.1
2018-09-23T00:16:04.615Z,25.1
2018-09-23T00:16:54.703Z,25.1
2018-09-23T00:17:45.016Z,25.1
2018-09-23T00:18:35.398Z,25.1
2018-09-23T00:19:24.910Z,25.1
2018-09-23T00:20:14.675Z,25.1
2018-09-23T00:21:04.772Z,25.1
2018-09-23T00:21:55.081Z,25.1
2018-09-23T00:22:45.170Z,25.1
2018-09-23T00:23:35.551Z,25.1
2018-09-23T00:24:25.001Z,25.1
2018-09-23T00:25:15.323Z,25.1
2018-09-23T00:26:05.390Z,25.1
2018-09-23T00:26:55.750Z,25.1
2018-09-23T00:27:46.102Z,25.1
2018-09-23T00:28:35.590Z,25.1
2018-09-23T00:29:25.370Z,25.1
2018-09-23T00:30:14.857Z,25.1
2018-09-23T00:31:05.590Z,25.1
2018-09-23T00:31:55.840Z,25.1
2018-09-23T00:32:45.922Z,25.1
2018-09-23T00:33:35.678Z,25.1
2018-09-23T00:34:25.462Z,25.1
2018-09-23T00:35:16.727Z,25.1
2018-09-23T00:36:06.754Z,25.1
2018-09-23T00:36:55.647Z,25.1
2018-09-23T00:56:01.528Z,25.1
2018-09-23T00:56:51.139Z,25.1
2018-09-23T00:57:41.477Z,25.1
2018-09-23T00:58:31.933Z,25.1
2018-09-23T00:59:21.993Z,25.1
2018-09-23T01:00:11.714Z,25.1
2018-09-23T01:01:02.281Z,25.1
2018-09-23T01:01:51.547Z,25.1
2018-09-23T01:02:42.165Z,25.1
2018-09-23T01:03:31.935Z,25.1
2018-09-23T01:04:22.242Z,25.1
2018-09-23T01:05:12.031Z,25.1
2018-09-23T01:06:02.642Z,25.1
2018-09-23T01:06:52.412Z,25.1
2018-09-23T01:07:42.282Z,25.1
2018-09-23T01:08:32.312Z,25.1
2018-09-23T01:09:22.349Z,25.1
2018-09-23T01:10:12.455Z,25.1
2018-09-23T01:11:03.403Z,25.1
2018-09-23T01:11:51.931Z,25.1
2018-09-23T01:12:42.834Z,25.1
2018-09-23T01:13:33.160Z,25.1
2018-09-23T01:14:22.726Z,25.1
2018-09-23T01:15:12.552Z,25.1
2018-09-23T01:16:02.291Z,25.1
2018-09-23T01:16:53.519Z,25.1
2018-09-23T01:17:42.974Z,25.1
2018-09-23T01:18:32.469Z,25.1
2018-09-23T01:19:23.109Z,25.1
2018-09-23T01:20:12.874Z,25.1
2018-09-23T01:21:03.205Z,25.1
2018-09-23T01:21:53.611Z,25.1
2018-09-23T01:22:43.378Z,25.1
2018-09-23T01:23:33.419Z,25.1
2018-09-23T01:24:23.521Z,25.1
2018-09-23T01:25:13.343Z,25.1
2018-09-23T01:26:03.947Z,25.1
2018-09-23T01:26:53.821Z,25.1
2018-09-23T01:27:43.730Z,25
2018-09-23T01:28:33.549Z,25
2018-09-23T01:29:23.840Z,25.1
2018-09-23T01:30:14.223Z,25.1
2018-09-23T01:31:04.041Z,25.1
2018-09-23T01:31:54.405Z,25.1
2018-09-23T01:32:44.423Z,25.1
2018-09-23T01:33:34.462Z,25.1
2018-09-23T01:34:24.526Z,25.1
2018-09-23T01:35:14.400Z,25.1
2018-09-23T01:36:04.093Z,25.1
2018-09-23T01:36:53.597Z,25.1
2018-09-23T01:37:44.254Z,25.1
2018-09-23T01:38:33.720Z,25.1
2018-09-23T01:39:24.645Z,25.1
2018-09-23T01:40:14.175Z,25.1
2018-09-23T01:41:04.737Z,25.1
2018-09-23T01:41:55.259Z,25.1
2018-09-23T01:42:45.235Z,25.1
2018-09-23T01:43:34.965Z,25.1
2018-09-23T01:44:25.002Z,25.1
2018-09-23T01:45:15.345Z,25.1
2018-09-23T01:46:05.123Z,25.1
2018-09-23T01:46:55.467Z,25.1
2018-09-23T01:47:45.004Z,25.1
2018-09-23T01:48:35.622Z,25.1
2018-09-23T01:49:25.423Z,25.1
2018-09-23T01:50:15.440Z,25.1
2018-09-23T01:51:04.958Z,25.1
2018-09-23T01:51:55.852Z,25.1
2018-09-23T01:52:45.107Z,25.1
2018-09-23T01:53:36.228Z,25.1
2018-09-23T01:54:25.759Z,25.1
2018-09-23T01:55:15.827Z,25.1
2018-09-23T01:56:05.304Z,25.1
2018-09-23T01:56:55.369Z,25.1
2018-09-23T01:57:46.907Z,25.1
2018-09-23T01:58:36.494Z,25.1
2018-09-23T01:59:25.571Z,25.1
2018-09-23T02:00:15.954Z,25.1
2018-09-23T02:01:06.263Z,25.1
2018-09-23T02:01:56.041Z,25.1
2018-09-23T02:02:46.350Z,25.1
2018-09-23T02:03:36.466Z,25.1
2018-09-23T02:04:25.981Z,25.1
2018-09-23T02:05:16.575Z,25.1
2018-09-23T02:06:06.375Z,25.1
2018-09-23T02:06:56.421Z,25.1
2018-09-23T02:07:47.673Z,25.1
2018-09-23T02:08:37.485Z,25.1
2018-09-23T02:09:26.618Z,25.1
2018-09-23T02:10:16.950Z,25.1
2018-09-23T02:11:07.306Z,25.1
2018-09-23T02:11:57.079Z,25.1
2018-09-23T02:12:47.513Z,25.1
2018-09-23T02:13:36.372Z,25.1
2018-09-23T02:14:27.010Z,25.1
2018-09-23T02:15:17.325Z,25.1
2018-09-23T02:16:07.421Z,25.1
2018-09-23T02:16:57.439Z,25.1
2018-09-23T02:17:48.060Z,25.1
2018-09-23T02:18:37.627Z,25.1
2018-09-23T02:19:27.703Z,25.1
2018-09-23T02:20:17.747Z,25.1
2018-09-23T02:21:07.562Z,25.1
2018-09-23T02:21:57.268Z,25.1
2018-09-23T02:22:47.572Z,25.1
2018-09-23T02:23:38.442Z,25.1
2018-09-23T02:24:27.736Z,25.1
2018-09-23T02:25:17.815Z,25.1
2018-09-23T02:26:08.195Z,25.1
2018-09-23T02:26:58.222Z,25.1
2018-09-23T02:27:47.724Z,25.1
2018-09-23T02:28:38.322Z,25.1
2018-09-23T02:29:28.122Z,25.1
2018-09-23T02:30:18.516Z,25.1
2018-09-23T02:31:08.822Z,25.1
2018-09-23T02:31:58.937Z,25.1
2018-09-23T02:32:48.625Z,25.1
2018-09-23T02:33:38.139Z,25.1
2018-09-23T02:34:28.796Z,25.1
2018-09-23T02:35:18.557Z,25.1
2018-09-23T02:36:08.926Z,25.1
2018-09-23T02:36:58.724Z,25.1
2018-09-23T02:37:48.759Z,25.1
2018-09-23T02:38:39.076Z,25.1
2018-09-23T02:39:29.469Z,25.1
2018-09-23T02:40:19.237Z,25.1
2018-09-23T02:41:09.051Z,25.1
2018-09-23T02:41:59.681Z,25.1
2018-09-23T02:42:49.480Z,25.1
2018-09-23T02:43:39.226Z,25.1
2018-09-23T02:44:29.536Z,25.1
2018-09-23T02:45:19.079Z,25.1
2018-09-23T02:46:09.393Z,25.1
2018-09-23T02:46:59.443Z,25.1
2018-09-23T02:47:49.522Z,25.1
2018-09-23T02:48:39.830Z,25.1
2018-09-23T02:49:30.219Z,25.1
2018-09-23T02:50:20.235Z,25.1
2018-09-23T02:51:10.340Z,25.1
2018-09-23T02:52:00.128Z,25.1
2018-09-23T02:52:49.647Z,25.1
2018-09-23T02:53:40.196Z,25.1
2018-09-23T02:54:30.343Z,25.1
2018-09-23T02:55:20.403Z,25.1
2018-09-23T02:56:10.405Z,25.1
2018-09-23T02:57:00.218Z,25.1
2018-09-23T02:57:49.982Z,25.1
2018-09-23T02:58:40.612Z,25.1
2018-09-23T02:59:30.148Z,25.1
2018-09-23T03:00:21.029Z,25.1
2018-09-23T03:01:10.810Z,25.1
2018-09-23T03:02:00.862Z,25.1
2018-09-23T03:02:50.933Z,25.1
2018-09-23T03:03:41.606Z,25.1
2018-09-23T03:04:31.115Z,25.1
2018-09-23T03:05:20.861Z,25.1
2018-09-23T03:06:10.903Z,25.1
2018-09-23T03:07:01.546Z,25.1
2018-09-23T03:07:51.602Z,25.1
2018-09-23T03:08:41.359Z,25.1
2018-09-23T03:09:31.722Z,25.1
2018-09-23T03:10:21.510Z,25.1
2018-09-23T03:11:10.736Z,25.1
2018-09-23T03:12:01.335Z,25.1
2018-09-23T03:12:51.989Z,25.1
2018-09-23T03:13:41.459Z,25.1
2018-09-23T03:14:31.777Z,25.1
2018-09-23T03:15:21.916Z,25.1
2018-09-23T03:16:11.959Z,25.1
2018-09-23T03:17:02.353Z,25.1
2018-09-23T03:17:51.855Z,25
2018-09-23T03:18:42.147Z,25.1
2018-09-23T03:19:32.474Z,25.1
2018-09-23T03:20:21.979Z,25.1
2018-09-23T03:21:12.079Z,25.1
2018-09-23T03:22:02.439Z,25.1
2018-09-23T03:22:51.873Z,25.1
2018-09-23T03:23:42.247Z,25.1
2018-09-23T03:24:33.121Z,25.1
2018-09-23T03:25:23.424Z,25.1
2018-09-23T03:26:13.034Z,25.1
2018-09-23T03:27:02.174Z,25.1
2018-09-23T03:27:52.871Z,25.1
2018-09-23T03:28:42.958Z,25.1
2018-09-23T03:29:33.278Z,25.1
2018-09-23T03:30:24.451Z,25.1
2018-09-23T03:31:13.003Z,25.1
2018-09-23T03:32:03.264Z,25.1
2018-09-23T03:32:53.251Z,25.1
2018-09-23T03:33:43.277Z,25.1
2018-09-23T03:34:33.632Z,25.1
2018-09-23T03:35:23.700Z,25
2018-09-23T03:36:13.421Z,25
2018-09-23T03:37:03.235Z,25
2018-09-23T03:37:53.290Z,25.1
2018-09-23T03:38:43.648Z,25.1
2018-09-23T03:39:33.719Z,25.1
2018-09-23T03:40:24.568Z,25.1
2018-09-23T03:41:13.584Z,25.1
2018-09-23T03:42:03.893Z,25.1
2018-09-23T03:42:54.249Z,25.1
2018-09-23T03:43:44.029Z,25
2018-09-23T03:44:33.899Z,25.1
2018-09-23T03:45:24.648Z,25.1
2018-09-23T03:46:13.717Z,25.1
2018-09-23T03:47:03.150Z,25.1
2018-09-23T03:47:54.382Z,25
2018-09-23T03:48:44.433Z,25.1
2018-09-23T03:49:34.738Z,25.1
2018-09-23T03:50:24.203Z,25.1
2018-09-23T03:51:14.809Z,25.1
2018-09-23T03:52:04.930Z,25.1
2018-09-23T03:52:54.992Z,25
2018-09-23T03:53:44.484Z,25.1
2018-09-23T03:54:35.121Z,25
2018-09-23T03:55:25.427Z,25
2018-09-23T03:56:15.253Z,25
2018-09-23T03:57:05.298Z,25
2018-09-23T03:57:54.764Z,25
2018-09-23T03:58:45.455Z,25
2018-09-23T03:59:34.940Z,25
2018-09-23T04:00:25.810Z,25
2018-09-23T04:01:16.480Z,25
2018-09-23T04:02:04.587Z,25
2018-09-23T04:02:55.503Z,25
2018-09-23T04:03:44.372Z,25
2018-09-23T04:04:35.046Z,25
2018-09-23T04:05:25.984Z,25
2018-09-23T04:06:14.827Z,25
2018-09-23T04:07:05.517Z,25
2018-09-23T04:07:56.121Z,25
2018-09-23T04:08:45.959Z,25
2018-09-23T04:09:35.717Z,25
2018-09-23T04:10:25.471Z,25
2018-09-23T04:11:16.049Z,25
2018-09-23T04:12:06.397Z,25
2018-09-23T04:12:55.940Z,25.1
2018-09-23T04:13:46.285Z,25
2018-09-23T04:14:36.039Z,25
2018-09-23T04:15:26.121Z,25
2018-09-23T04:16:15.934Z,25
2018-09-23T04:17:06.829Z,25
2018-09-23T04:17:56.019Z,25
2018-09-23T04:18:46.984Z,25
2018-09-23T04:19:36.721Z,25
2018-09-23T04:20:26.793Z,25
2018-09-23T04:21:16.809Z,25
2018-09-23T04:22:07.511Z,25
2018-09-23T04:22:57.266Z,25
2018-09-23T04:23:46.750Z,25
2018-09-23T04:24:36.817Z,25
2018-09-23T04:25:27.166Z,25
2018-09-23T04:26:17.256Z,25
2018-09-23T04:27:07.633Z,25
2018-09-23T04:27:57.612Z,25
2018-09-23T04:28:47.410Z,25
2018-09-23T04:29:37.748Z,25
2018-09-23T04:30:27.056Z,25
2018-09-23T04:31:17.634Z,25
2018-09-23T04:32:08.527Z,25
2018-09-23T04:32:57.175Z,25
2018-09-23T04:33:47.789Z,25
2018-09-23T04:34:37.287Z,25
2018-09-23T04:35:27.940Z,25
2018-09-23T04:36:17.969Z,25
2018-09-23T04:37:08.581Z,25
2018-09-23T04:37:57.505Z,25
2018-09-23T04:38:48.169Z,25
2018-09-23T04:39:37.651Z,24.9
2018-09-23T04:40:28.027Z,24.9
2018-09-23T04:41:18.059Z,24.9
2018-09-23T04:42:08.716Z,24.9
2018-09-23T04:42:58.184Z,24.9
2018-09-23T04:43:48.271Z,24.9
2018-09-23T04:44:38.299Z,24.9
2018-09-23T04:45:28.689Z,24.9
2018-09-23T04:46:18.746Z,24.9
2018-09-23T04:47:08.801Z,24.9
2018-09-23T04:47:59.457Z,24.9
2018-09-23T04:48:48.997Z,24.9
2018-09-23T04:49:38.669Z,24.9
2018-09-23T04:50:29.331Z,24.9
2018-09-23T04:51:18.814Z,24.9
2018-09-23T04:52:09.449Z,24.9
2018-09-23T04:53:00.687Z,24.9
2018-09-23T04:53:49.330Z,24.9
2018-09-23T04:54:39.078Z,24.9
2018-09-23T04:55:29.920Z,24.9
2018-09-23T04:56:19.563Z,24.9
2018-09-23T04:57:09.547Z,24.9
2018-09-23T04:57:59.543Z,24.9
2018-09-23T04:58:49.910Z,24.9
2018-09-23T04:59:39.744Z,24.9
2018-09-23T05:00:29.776Z,24.9
2018-09-23T05:01:19.862Z,24.9
2018-09-23T05:02:09.949Z,24.9
2018-09-23T05:03:00.317Z,24.9
2018-09-23T05:03:50.078Z,24.9
2018-09-23T05:04:40.096Z,24.9
2018-09-23T05:05:30.166Z,24.9
2018-09-23T05:06:20.189Z,24.9
2018-09-23T05:07:10.309Z,24.9
2018-09-23T05:24:56.971Z,24.9
2018-09-23T05:25:46.791Z,24.9
2018-09-23T05:26:36.550Z,24.9
2018-09-23T05:27:26.130Z,24.9
2018-09-23T05:28:17.210Z,24.9
2018-09-23T05:29:06.407Z,24.9
2018-09-23T05:29:57.600Z,24.9
2018-09-23T05:30:47.395Z,24.9
2018-09-23T05:31:37.482Z,24.9
2018-09-23T05:32:27.242Z,24.9
2018-09-23T05:33:17.312Z,24.9
2018-09-23T05:34:07.644Z,24.9
2018-09-23T05:34:57.979Z,24.9
2018-09-23T05:35:47.202Z,24.9
2018-09-23T05:36:37.832Z,24.9
2018-09-23T05:37:27.623Z,24.9
2018-09-23T05:38:17.667Z,24.9
2018-09-23T05:39:07.738Z,24.9
2018-09-23T05:39:58.335Z,24.9
2018-09-23T05:40:48.107Z,24.9
2018-09-23T05:41:37.685Z,24.9
2018-09-23T05:42:28.265Z,24.9
2018-09-23T05:43:17.788Z,24.9
2018-09-23T05:44:09.749Z,24.9
2018-09-23T05:44:57.676Z,24.8
2018-09-23T05:45:48.313Z,24.9
2018-09-23T05:46:37.719Z,24.9
2018-09-23T05:47:27.509Z,24.9
2018-09-23T05:48:17.861Z,24.9
2018-09-23T05:49:08.499Z,24.9
2018-09-23T05:49:58.831Z,24.8
2018-09-23T05:50:48.889Z,24.8
2018-09-23T05:51:39.491Z,24.9
2018-09-23T05:52:29.059Z,24.9
2018-09-23T05:53:19.920Z,24.9
2018-09-23T05:54:09.194Z,24.9
2018-09-23T05:54:58.972Z,29.2
2018-09-23T05:55:49.013Z,30.1
2018-09-23T05:56:38.433Z,32.2
2018-09-23T05:57:29.104Z,33.7
2018-09-23T05:58:19.193Z,34.3
2018-09-23T05:59:08.971Z,33.7
2018-09-23T05:59:59.376Z,32.3
2018-09-23T06:00:49.151Z,31.4
2018-09-23T06:01:39.458Z,31
2018-09-23T06:02:29.808Z,30.8
2018-09-23T06:03:20.586Z,30.8
2018-09-23T06:04:09.628Z,30.7
2018-09-23T06:04:59.680Z,30.6
2018-09-23T06:05:49.580Z,30.5
2018-09-23T06:06:39.140Z,30.4
2018-09-23T06:07:29.941Z,30.3
2018-09-23T06:08:19.628Z,30.3
2018-09-23T06:09:09.453Z,30.2
2018-09-23T06:10:00.043Z,30.1
2018-09-23T06:10:50.403Z,31
2018-09-23T06:11:39.770Z,32.6
2018-09-23T06:12:29.967Z,33.8
2018-09-23T06:13:20.590Z,35.3
2018-09-23T06:14:10.719Z,36.1
2018-09-23T06:14:59.860Z,36.4
2018-09-23T06:15:50.192Z,36.3
2018-09-23T06:16:40.270Z,36.3
2018-09-23T06:17:30.914Z,36.3
2018-09-23T06:18:21.142Z,36.5
2018-09-23T06:19:10.227Z,36.8
2018-09-23T06:20:00.512Z,36.9
2018-09-23T06:20:50.605Z,37.2
2018-09-23T06:21:41.219Z,37.3
2018-09-23T06:22:31.004Z,37.4
2018-09-23T06:23:21.385Z,37.6
2018-09-23T06:24:11.138Z,37.7
2018-09-23T06:25:01.203Z,37.8
2018-09-23T06:25:51.606Z,38
2018-09-23T06:26:41.328Z,38.2
2018-09-23T06:27:30.852Z,38.3
2018-09-23T06:28:21.711Z,38.4
2018-09-23T06:29:11.511Z,38.6
2018-09-23T06:30:01.876Z,38.8
2018-09-23T06:30:51.956Z,38.9
2018-09-23T06:31:41.023Z,39.1
2018-09-23T06:32:32.059Z,39.1
2018-09-23T06:33:21.241Z,39.3
2018-09-23T06:34:13.463Z,39.4
2018-09-23T06:35:02.234Z,39.6
2018-09-23T06:35:52.289Z,39.8
2018-09-23T06:36:41.837Z,39.9
2018-09-23T06:37:32.667Z,40
2018-09-23T06:38:22.220Z,40.1
2018-09-23T06:39:12.548Z,40.3
2018-09-23T06:40:02.064Z,40.4
2018-09-23T06:40:52.696Z,40.4
2018-09-23T06:41:42.190Z,40.5
2018-09-23T06:42:32.905Z,40.4
2018-09-23T06:43:22.369Z,40.3
2018-09-23T06:44:12.739Z,40.1
2018-09-23T06:45:02.469Z,40
2018-09-23T06:45:53.996Z,40.1
2018-09-23T06:46:43.136Z,40.2
2018-09-23T06:47:32.800Z,40.4
2018-09-23T06:48:23.095Z,40.5
2018-09-23T06:49:13.318Z,40.6
2018-09-23T06:50:03.376Z,40.7
2018-09-23T06:50:52.560Z,40.8
2018-09-23T06:51:43.783Z,40.9
2018-09-23T06:52:33.315Z,41.1
2018-09-23T06:53:23.113Z,41.3
2018-09-23T06:54:13.727Z,41.4
2018-09-23T06:55:03.455Z,41.6
2018-09-23T06:55:53.818Z,41.7
2018-09-23T06:56:44.310Z,41.9
2018-09-23T06:57:33.408Z,42
2018-09-23T06:58:23.986Z,42.2
2018-09-23T06:59:13.263Z,42.3
2018-09-23T07:00:03.994Z,42.5
2018-09-23T07:00:53.708Z,42.6
2018-09-23T07:01:44.051Z,42.7
2018-09-23T07:02:34.542Z,42.8
2018-09-23T07:03:24.360Z,43
2018-09-23T07:04:13.735Z,43.1
2018-09-23T07:05:05.335Z,43.3
2018-09-23T07:05:53.983Z,43.4
2018-09-23T07:06:44.319Z,43.6
2018-09-23T07:07:34.690Z,43.7
2018-09-23T07:08:24.479Z,43.8
2018-09-23T07:09:14.496Z,44
2018-09-23T07:10:04.387Z,44.1
2018-09-23T07:10:54.452Z,44.3
2018-09-23T07:11:44.436Z,44.4
2018-09-23T07:12:34.777Z,44.6
2018-09-23T07:13:24.008Z,44.7
2018-09-23T07:14:14.648Z,44.8
2018-09-23T07:15:04.768Z,44.9
2018-09-23T07:15:54.550Z,44.9
2018-09-23T07:16:45.663Z,44.7
2018-09-23T07:17:35.210Z,44.6
2018-09-23T07:18:24.948Z,44.6
2018-09-23T07:19:15.643Z,44.8
2018-09-23T07:20:05.121Z,44.9
2018-09-23T07:20:55.438Z,45.1
2018-09-23T07:21:45.587Z,45.2
2018-09-23T07:22:35.087Z,45.3
2018-09-23T07:23:25.369Z,45.4
2018-09-23T07:24:16.888Z,45.6
2018-09-23T07:25:05.481Z,45.8
2018-09-23T07:25:55.554Z,45.9
2018-09-23T07:26:46.172Z,46.1
2018-09-23T07:27:35.671Z,46.3
2018-09-23T07:28:26.311Z,46.4
2018-09-23T07:29:16.870Z,46.6
2018-09-23T07:30:07.343Z,46.8
2018-09-23T07:30:56.472Z,46.9
2018-09-23T07:31:46.287Z,47.1
2018-09-23T07:32:36.329Z,47.3
2018-09-23T07:33:26.199Z,47.4
2018-09-23T07:34:16.189Z,47.6
2018-09-23T07:35:05.953Z,47.8
2018-09-23T07:35:56.551Z,47.9
2018-09-23T07:36:48.160Z,48
2018-09-23T07:37:35.619Z,48.2
2018-09-23T07:38:27.172Z,48.3
2018-09-23T07:39:17.151Z,48.5
2018-09-23T07:40:08.316Z,48.6
2018-09-23T07:40:56.683Z,48.8
2018-09-23T07:41:47.279Z,48.9
2018-09-23T07:42:36.779Z,49.1
2018-09-23T07:43:27.428Z,49.3
2018-09-23T07:44:17.203Z,49.4
2018-09-23T07:45:06.981Z,49.6
2018-09-23T07:45:57.321Z,49.7
2018-09-23T07:46:47.405Z,49.8
2018-09-23T07:47:37.975Z,49.9
2018-09-23T07:48:27.838Z,50.1
2018-09-23T07:49:17.698Z,50.3
2018-09-23T07:50:07.751Z,50.4
2018-09-23T07:50:57.125Z,50.6
2018-09-23T07:51:47.279Z,50.7
2018-09-23T07:52:37.610Z,50.8
2018-09-23T07:53:28.238Z,51.1
2018-09-23T07:54:17.991Z,51.2
2018-09-23T07:55:07.775Z,51.3
2018-09-23T07:55:57.773Z,51.4
2018-09-23T07:56:47.878Z,51.6
2018-09-23T07:57:38.237Z,51.8
2018-09-23T07:58:28.278Z,51.9
2018-09-23T07:59:18.170Z,52.1
2018-09-23T08:00:08.132Z,52.2
2018-09-23T08:00:58.450Z,52.3
2018-09-23T08:01:48.235Z,52.5
2018-09-23T08:02:38.877Z,52.6
2018-09-23T08:03:29.592Z,52.8
2018-09-23T08:04:18.684Z,52.9
2018-09-23T08:05:08.754Z,53
2018-09-23T08:05:59.425Z,53.1
2018-09-23T08:06:48.915Z,53.3
2018-09-23T08:07:39.017Z,53.4
2018-09-23T08:08:29.302Z,53.6
2018-09-23T08:09:19.402Z,53.7
2018-09-23T08:10:09.459Z,53.8
2018-09-23T08:10:59.480Z,54
2018-09-23T08:11:49.270Z,54.1
2018-09-23T08:12:41.927Z,54.2
2018-09-23T08:13:31.523Z,54.3
2018-09-23T08:14:25.404Z,54.5
2018-09-23T08:15:10.691Z,54.6
2018-09-23T08:15:59.646Z,54.8
2018-09-23T08:16:49.740Z,54.9
2018-09-23T08:17:39.991Z,54.9
2018-09-23T08:18:29.804Z,55.1
2018-09-23T08:19:20.394Z,55.2
2018-09-23T08:20:11.955Z,55.3
2018-09-23T08:21:01.742Z,55.4
2018-09-23T08:21:50.041Z,55.6
2018-09-23T08:22:40.081Z,55.7
2018-09-23T08:23:30.212Z,55.9
2018-09-23T08:24:20.589Z,55.9
2018-09-23T08:25:10.636Z,56.1
2018-09-23T08:26:00.223Z,56.2
2018-09-23T08:26:49.969Z,56.3
2018-09-23T08:27:40.008Z,56.3
2018-09-23T08:28:30.073Z,56.4
2018-09-23T08:29:19.696Z,56.5
2018-09-23T08:30:10.957Z,56.6
2018-09-23T08:31:00.468Z,56.6
2018-09-23T08:31:51.121Z,56.8
2018-09-23T08:32:40.876Z,56.9
2018-09-23T08:33:30.717Z,56.9
2018-09-23T08:34:20.514Z,57.1
2018-09-23T08:35:11.049Z,57.2
2018-09-23T08:36:01.417Z,57.3
2018-09-23T08:36:50.734Z,57.4
2018-09-23T08:37:41.278Z,57.6
2018-09-23T08:38:31.641Z,57.6
2018-09-23T08:39:21.398Z,57.7
2018-09-23T08:40:11.991Z,57.8
2018-09-23T08:41:01.787Z,57.9
2018-09-23T08:41:52.218Z,58
2018-09-23T08:42:41.752Z,58.2
2018-09-23T08:43:32.107Z,58.4
2018-09-23T08:44:22.093Z,58.5
2018-09-23T08:45:11.835Z,58.5
2018-09-23T08:46:01.635Z,58.6
2018-09-23T08:46:52.350Z,58.8
2018-09-23T08:47:42.478Z,58.8
2018-09-23T08:48:33.069Z,58.9
2018-09-23T08:49:22.765Z,58.9
2018-09-23T08:50:12.631Z,58.8
2018-09-23T08:51:02.571Z,58.8
2018-09-23T08:51:53.246Z,58.9
2018-09-23T08:52:42.983Z,58.9
2018-09-23T08:53:32.198Z,59.1
2018-09-23T08:54:22.769Z,59.2
2018-09-23T08:55:12.592Z,59.3
2018-09-23T08:56:02.654Z,59.4
2018-09-23T08:56:52.790Z,59.5
2018-09-23T08:57:43.025Z,59.6
2018-09-23T08:58:33.211Z,59.8
2018-09-23T08:59:22.879Z,59.9
2018-09-23T09:00:12.679Z,60
2018-09-23T09:01:03.031Z,60.1
2018-09-23T09:01:53.397Z,60.1
2018-09-23T09:02:43.524Z,60.2
2018-09-23T09:03:33.295Z,60.4
2018-09-23T09:04:23.041Z,60.4
2018-09-23T09:05:13.377Z,60.5
2018-09-23T09:06:03.701Z,60.6
2018-09-23T09:06:53.486Z,60.7
2018-09-23T09:07:43.259Z,60.8
2018-09-23T09:08:33.324Z,60.8
2018-09-23T09:09:24.062Z,60.9
2018-09-23T09:10:13.775Z,61.1
2018-09-23T09:11:03.338Z,61.1
2018-09-23T09:11:55.056Z,61.3
2018-09-23T09:12:43.389Z,61.3
2018-09-23T09:13:33.791Z,61.4
2018-09-23T09:14:23.863Z,61.4
2018-09-23T09:15:14.199Z,61.6
2018-09-23T09:16:04.482Z,61.7
2018-09-23T09:16:54.275Z,61.7
2018-09-23T09:17:44.635Z,61.9
2018-09-23T09:18:35.714Z,61.9
2018-09-23T09:19:24.163Z,62
2018-09-23T09:20:13.968Z,62.1
2018-09-23T09:21:54.651Z,62.2
2018-09-23T09:22:44.738Z,62.3
2018-09-23T09:39:41.840Z,64
2018-09-23T09:40:31.554Z,64.1
2018-09-23T09:41:21.173Z,64.3
2018-09-23T09:42:10.956Z,64.3
2018-09-23T09:43:01.527Z,64.4
2018-09-23T09:43:51.938Z,64.4
2018-09-23T09:44:41.737Z,64.6
2018-09-23T09:45:30.609Z,64.7
2018-09-23T09:46:21.540Z,64.8
2018-09-23T09:47:11.347Z,64.8
2018-09-23T09:48:01.332Z,64.9
2018-09-23T09:48:51.760Z,64.9
2018-09-23T09:49:42.049Z,64.9
2018-09-23T09:50:31.564Z,65.1
2018-09-23T09:51:21.965Z,65.1
2018-09-23T09:52:12.025Z,65.2
2018-09-23T09:53:01.556Z,65.3
2018-09-23T09:53:52.156Z,65.3
2018-09-23T09:54:42.467Z,65.3
2018-09-23T09:55:33.621Z,65.4
2018-09-23T09:56:22.411Z,65.4
2018-09-23T09:57:12.387Z,65.4
2018-09-23T09:58:02.159Z,65.6
2018-09-23T09:58:52.219Z,65.6
2018-09-23T09:59:42.878Z,65.7
2018-09-23T10:00:32.349Z,65.8
2018-09-23T10:01:22.441Z,65.9
2018-09-23T10:02:12.734Z,66
2018-09-23T10:03:03.061Z,66.1
2018-09-23T10:03:53.755Z,66.2
2018-09-23T10:04:42.950Z,66.3
2018-09-23T10:05:33.303Z,66.3
2018-09-23T10:06:22.778Z,66.4
2018-09-23T10:07:12.596Z,66.5
2018-09-23T10:08:03.020Z,66.6
2018-09-23T10:08:53.080Z,66.7
2018-09-23T10:09:43.996Z,66.8
2018-09-23T10:10:33.508Z,66.8
2018-09-23T10:11:23.359Z,66.9
2018-09-23T10:12:13.730Z,67
2018-09-23T10:13:03.605Z,67.1
2018-09-23T10:13:53.768Z,67.2
2018-09-23T10:14:43.433Z,67.3
2018-09-23T10:15:32.915Z,67.3
2018-09-23T10:16:24.107Z,67.4
2018-09-23T10:17:14.178Z,67.4
2018-09-23T10:18:04.007Z,67.5
2018-09-23T10:18:54.018Z,67.6
2018-09-23T10:19:44.043Z,67.6
2018-09-23T10:20:34.175Z,67.8
2018-09-23T10:21:24.233Z,67.8
2018-09-23T10:22:14.585Z,67.9
2018-09-23T10:23:05.781Z,68
2018-09-23T10:23:55.485Z,68
2018-09-23T10:24:45.028Z,68.1
2018-09-23T10:25:34.314Z,68.2
2018-09-23T10:26:24.602Z,68.3
2018-09-23T10:27:13.808Z,68.4
2018-09-23T10:28:04.454Z,68.4
2018-09-23T10:28:54.279Z,68.5
2018-09-23T10:29:45.328Z,68.6
2018-09-23T10:30:34.909Z,68.6
2018-09-23T10:31:26.861Z,68.7
2018-09-23T10:32:15.066Z,68.8
2018-09-23T10:33:04.869Z,68.9
2018-09-23T10:33:55.199Z,68.9
2018-09-23T10:34:45.087Z,69
2018-09-23T10:35:34.194Z,69.1
2018-09-23T10:36:25.695Z,69.1
2018-09-23T10:37:15.984Z,69.3
2018-09-23T10:38:05.551Z,69.3
2018-09-23T10:38:54.735Z,69.4
2018-09-23T10:39:45.411Z,69.4
2018-09-23T10:40:35.978Z,69.6
2018-09-23T10:41:26.262Z,69.6
2018-09-23T10:42:15.312Z,69.7
2018-09-23T10:43:06.188Z,69.7
2018-09-23T10:43:56.255Z,69.8
2018-09-23T10:44:46.016Z,69.9
2018-09-23T10:45:36.038Z,69.9
2018-09-23T10:46:25.736Z,70
2018-09-23T10:47:16.660Z,70.1
2018-09-23T10:48:06.486Z,70.1
2018-09-23T10:48:56.476Z,70.2
2018-09-23T10:49:46.774Z,70.3
2018-09-23T10:50:36.583Z,70.3
2018-09-23T10:51:26.612Z,70.4
2018-09-23T10:52:16.322Z,70.5
2018-09-23T10:53:06.922Z,70.5
2018-09-23T10:53:56.715Z,70.6
2018-09-23T10:54:46.491Z,70.6
2018-09-23T10:55:36.902Z,70.7
2018-09-23T10:56:26.922Z,70.8
2018-09-23T10:57:17.260Z,70.8
2018-09-23T10:58:06.809Z,70.9
2018-09-23T10:58:57.151Z,70.9
2018-09-23T10:59:47.490Z,70.9
2018-09-23T11:00:37.492Z,71
2018-09-23T11:01:27.011Z,71.1
2018-09-23T11:02:16.824Z,71.1
2018-09-23T11:03:07.397Z,71.2
2018-09-23T11:03:58.105Z,71.3
2018-09-23T11:04:45.858Z,71.4
2018-09-23T11:05:36.770Z,71.4
2018-09-23T11:06:27.144Z,71.4
2018-09-23T11:07:17.800Z,71.5
2018-09-23T11:08:07.148Z,71.6
2018-09-23T11:08:57.388Z,71.6
2018-09-23T11:09:47.657Z,71.6
2018-09-23T11:10:37.536Z,71.7
2018-09-23T11:11:28.051Z,71.8
2018-09-23T11:12:18.434Z,71.9
2018-09-23T11:13:08.441Z,71.9
2018-09-23T11:13:58.268Z,72
2018-09-23T11:14:48.013Z,72.1
2018-09-23T11:15:38.325Z,72.1
2018-09-23T11:16:28.126Z,72.2
2018-09-23T11:17:18.778Z,72.2
2018-09-23T11:18:07.743Z,72.3
2018-09-23T11:18:58.322Z,72.3
2018-09-23T11:19:48.413Z,72.4
2018-09-23T11:20:38.440Z,72.4
2018-09-23T11:21:28.550Z,72.4
2018-09-23T11:22:19.135Z,72.5
2018-09-23T11:23:08.960Z,72.6
2018-09-23T11:23:58.770Z,72.6
2018-09-23T11:24:50.070Z,72.7
2018-09-23T11:25:38.000Z,72.8
2018-09-23T11:26:29.792Z,72.8
2018-09-23T11:27:18.422Z,72.8
2018-09-23T11:28:09.072Z,72.8
2018-09-23T11:28:59.748Z,72.6
2018-09-23T11:29:48.872Z,71.9
2018-09-23T11:30:40.397Z,70.9
2018-09-23T11:31:29.907Z,71.1
2018-09-23T11:32:19.375Z,71.6
2018-09-23T11:33:10.042Z,72.3
2018-09-23T11:34:00.078Z,72.8
2018-09-23T11:34:49.554Z,72.9
2018-09-23T11:35:39.629Z,72.9
2018-09-23T11:36:29.822Z,72.8
2018-09-23T11:37:19.771Z,72.8
2018-09-23T11:38:09.836Z,72.8
2018-09-23T11:38:59.409Z,72.8
2018-09-23T11:39:50.797Z,72.9
2018-09-23T11:40:40.816Z,73
2018-09-23T11:41:30.716Z,73.1
2018-09-23T11:42:20.701Z,73.1
2018-09-23T11:43:09.959Z,73.1
2018-09-23T11:44:00.572Z,73.2
2018-09-23T11:44:49.452Z,73.3
2018-09-23T11:45:40.413Z,73.3
2018-09-23T11:46:30.456Z,73.3
2018-09-23T11:47:20.546Z,73.4
2018-09-23T11:48:10.585Z,73.4
2018-09-23T11:49:01.246Z,73.4
2018-09-23T11:49:51.059Z,73.5
2018-09-23T11:50:41.675Z,73.6
2018-09-23T11:51:30.970Z,73.6
2018-09-23T11:52:21.501Z,73.6
2018-09-23T11:53:10.780Z,73.6
2018-09-23T11:54:01.563Z,73.7
2018-09-23T11:54:51.715Z,73.7
2018-09-23T11:55:41.770Z,73.8
2018-09-23T11:56:31.531Z,73.8
2018-09-23T11:57:21.551Z,73.8
2018-09-23T11:58:11.906Z,73.8
2018-09-23T11:59:02.973Z,73.9
2018-09-23T11:59:52.059Z,73.9
2018-09-23T12:00:41.674Z,73.9
2018-09-23T12:01:32.300Z,73.9
2018-09-23T12:02:23.346Z,74
2018-09-23T12:03:12.059Z,74.1